createdAt,value
2019-01-28T00:00:15.617Z,5.20
2019-01-28T00:02:44.437Z,5.20
2019-01-28T00:05:13.321Z,5.20
2019-01-28T00:07:42.094Z,5.10
2019-01-28T00:10:10.640Z,5.10
2019-01-28T00:12:39.355Z,5.10
2019-01-28T00:15:09.007Z,5.10
2019-01-28T00:17:37.766Z,5.10
2019-01-28T00:20:09.615Z,5.10
2019-01-28T00:22:38.053Z,5.10
2019-01-28T00:25:07.895Z,5.20
2019-01-28T00:27:36.610Z,5.10
2019-01-28T00:30:08.130Z,5.20
2019-01-28T00:32:36.580Z,5.10
2019-01-28T00:35:07.126Z,5.00
2019-01-28T00:37:36.143Z,5.00
2019-01-28T00:40:07.694Z,5.00
2019-01-28T00:42:36.391Z,5.00
2019-01-28T00:45:07.541Z,5.00
2019-01-28T00:47:36.037Z,5.10
2019-01-28T00:50:07.606Z,5.10
2019-01-28T00:52:36.047Z,5.10
2019-01-28T00:55:06.890Z,5.10
2019-01-28T00:57:35.684Z,5.10
2019-01-28T01:00:06.997Z,5.10
2019-01-28T01:02:35.565Z,5.00
2019-01-28T01:05:05.419Z,5.00
2019-01-28T01:07:33.987Z,5.00
2019-01-28T01:10:02.534Z,4.90
2019-01-28T01:12:31.004Z,4.90
2019-01-28T01:14:59.737Z,4.80
2019-01-28T01:17:28.180Z,4.80
2019-01-28T01:19:56.577Z,4.80
2019-01-28T01:22:25.278Z,4.80
2019-01-28T01:24:53.691Z,4.80
2019-01-28T01:27:22.120Z,4.70
2019-01-28T01:29:50.917Z,4.70
2019-01-28T01:32:19.353Z,4.70
2019-01-28T01:34:48.089Z,4.70
2019-01-28T01:37:16.521Z,4.70
2019-01-28T01:39:44.933Z,4.70
2019-01-28T01:42:13.362Z,4.70
2019-01-28T01:44:41.761Z,4.70
2019-01-28T01:47:10.197Z,4.70
2019-01-28T01:49:38.594Z,4.80
2019-01-28T01:52:07.169Z,4.70
2019-01-28T01:54:35.848Z,4.80
2019-01-28T01:57:04.559Z,4.80
2019-01-28T01:59:33.305Z,4.80
2019-01-28T02:02:01.758Z,4.80
2019-01-28T02:04:30.169Z,4.80
2019-01-28T02:06:58.607Z,4.70
2019-01-28T02:09:27.118Z,4.80
2019-01-28T02:11:55.926Z,4.70
2019-01-28T02:14:24.405Z,4.70
2019-01-28T02:16:53.092Z,4.70
2019-01-28T02:19:21.496Z,4.70
2019-01-28T02:21:49.942Z,4.70
2019-01-28T02:24:18.415Z,4.70
2019-01-28T02:26:47.133Z,4.60
2019-01-28T02:29:15.815Z,4.50
2019-01-28T02:31:44.785Z,4.50
2019-01-28T02:34:13.678Z,4.60
2019-01-28T02:36:42.120Z,4.60
2019-01-28T02:39:10.525Z,4.50
2019-01-28T02:41:39.337Z,4.50
2019-01-28T02:44:07.883Z,4.50
2019-01-28T02:46:36.337Z,4.40
2019-01-28T02:49:04.816Z,4.40
2019-01-28T02:51:33.248Z,4.40
2019-01-28T02:54:01.942Z,4.40
2019-01-28T02:56:30.710Z,4.40
2019-01-28T02:58:59.398Z,4.40
2019-01-28T03:01:28.285Z,4.30
2019-01-28T03:03:56.769Z,4.30
2019-01-28T03:06:25.497Z,4.20
2019-01-28T03:08:53.986Z,4.20
2019-01-28T03:11:23.039Z,4.20
2019-01-28T03:13:51.462Z,4.20
2019-01-28T03:16:21.524Z,4.20
2019-01-28T03:18:50.261Z,4.20
2019-01-28T03:21:18.737Z,4.10
2019-01-28T03:23:47.338Z,4.10
2019-01-28T03:26:15.747Z,4.10
2019-01-28T03:28:44.229Z,4.10
2019-01-28T03:31:12.619Z,4.10
2019-01-28T03:33:41.046Z,4.10
2019-01-28T03:36:09.515Z,4.10
2019-01-28T03:38:37.970Z,4.10
2019-01-28T03:41:06.658Z,4.10
2019-01-28T03:43:35.093Z,4.10
2019-01-28T03:46:03.570Z,4.10
2019-01-28T03:48:32.303Z,4.20
2019-01-28T03:51:00.704Z,4.10
2019-01-28T03:53:29.473Z,4.10
2019-01-28T03:55:57.874Z,4.10
2019-01-28T03:58:26.350Z,4.10
2019-01-28T04:00:54.746Z,4.10
2019-01-28T04:03:23.183Z,4.10
2019-01-28T04:05:51.856Z,4.10
2019-01-28T04:08:20.680Z,4.20
2019-01-28T04:10:49.194Z,4.20
2019-01-28T04:13:17.634Z,4.20
2019-01-28T04:15:46.188Z,4.10
2019-01-28T04:18:14.986Z,4.10
2019-01-28T04:20:43.394Z,4.00
2019-01-28T04:23:11.837Z,3.90
2019-01-28T04:25:40.530Z,3.90
2019-01-28T04:28:09.314Z,3.90
2019-01-28T04:30:37.719Z,3.80
2019-01-28T04:33:06.165Z,3.80
2019-01-28T04:35:34.731Z,3.80
2019-01-28T04:38:03.542Z,3.80
2019-01-28T04:40:32.315Z,3.80
2019-01-28T04:43:00.724Z,3.80
2019-01-28T04:45:29.207Z,3.80
2019-01-28T04:47:57.611Z,3.80
2019-01-28T04:50:26.067Z,3.90
2019-01-28T04:52:54.782Z,3.90
2019-01-28T04:55:23.463Z,3.90
2019-01-28T04:57:51.932Z,3.90
2019-01-28T05:00:25.693Z,3.90
2019-01-28T05:02:54.274Z,3.90
2019-01-28T05:05:23.286Z,4.00
2019-01-28T05:07:51.754Z,4.00
2019-01-28T05:10:21.335Z,4.00
2019-01-28T05:12:50.054Z,4.00
2019-01-28T05:15:19.643Z,3.90
2019-01-28T05:17:48.483Z,3.90
2019-01-28T05:20:22.350Z,3.80
2019-01-28T05:22:50.834Z,3.80
2019-01-28T05:25:19.442Z,3.80
2019-01-28T05:27:48.602Z,3.80
2019-01-28T05:30:22.090Z,3.80
2019-01-28T05:32:50.914Z,3.80
2019-01-28T05:35:21.279Z,3.80
2019-01-28T05:37:50.103Z,3.80
2019-01-28T05:40:20.630Z,3.90
2019-01-28T05:42:49.437Z,3.90
2019-01-28T05:45:19.810Z,4.00
2019-01-28T05:47:48.284Z,4.00
2019-01-28T05:50:17.118Z,4.00
2019-01-28T05:52:46.214Z,4.00
2019-01-28T05:55:16.794Z,4.00
2019-01-28T05:57:45.887Z,4.00
2019-01-28T06:00:32.590Z,4.10
2019-01-28T06:03:00.994Z,4.10
2019-01-28T06:05:29.463Z,4.10
2019-01-28T06:07:58.185Z,4.10
2019-01-28T06:10:26.623Z,4.10
2019-01-28T06:12:55.361Z,4.20
2019-01-28T06:15:24.150Z,4.20
2019-01-28T06:17:52.857Z,4.20
2019-01-28T06:20:26.196Z,4.20
2019-01-28T06:22:55.015Z,4.20
2019-01-28T06:25:23.493Z,4.20
2019-01-28T06:27:52.288Z,4.20
2019-01-28T06:30:29.142Z,4.10
2019-01-28T06:32:57.936Z,4.10
2019-01-28T06:35:26.522Z,4.10
2019-01-28T06:37:55.182Z,4.20
2019-01-28T06:40:32.086Z,4.20
2019-01-28T06:43:00.778Z,4.20
2019-01-28T06:45:29.178Z,4.20
2019-01-28T06:47:57.947Z,4.20
2019-01-28T06:50:26.485Z,4.20
2019-01-28T06:52:55.073Z,4.20
2019-01-28T06:55:23.568Z,4.20
2019-01-28T06:57:52.372Z,4.30
2019-01-28T07:00:23.918Z,4.30
2019-01-28T07:02:52.432Z,4.30
2019-01-28T07:05:21.203Z,4.40
2019-01-28T07:07:49.988Z,4.40
2019-01-28T07:10:18.542Z,4.40
2019-01-28T07:12:46.975Z,4.40
2019-01-28T07:15:18.396Z,4.40
2019-01-28T07:17:54.373Z,4.40
2019-01-28T07:20:19.846Z,4.40
2019-01-28T07:22:48.602Z,4.40
2019-01-28T07:25:17.526Z,4.40
2019-01-28T07:27:46.081Z,4.30
2019-01-28T07:30:26.603Z,4.30
2019-01-28T07:32:55.363Z,4.30
2019-01-28T07:35:24.059Z,4.40
2019-01-28T07:37:52.500Z,4.40
2019-01-28T07:40:21.323Z,4.40
2019-01-28T07:42:50.106Z,4.50
2019-01-28T07:45:24.495Z,4.50
2019-01-28T07:47:52.929Z,4.50
2019-01-28T07:50:21.573Z,4.60
2019-01-28T07:52:50.072Z,4.60
2019-01-28T07:55:18.864Z,4.60
2019-01-28T07:57:47.663Z,4.70
2019-01-28T08:00:19.458Z,4.60
2019-01-28T08:02:48.459Z,4.70
2019-01-28T08:05:18.694Z,4.70
2019-01-28T08:07:47.305Z,4.70
2019-01-28T08:10:17.850Z,4.70
2019-01-28T08:12:46.635Z,4.70
2019-01-28T08:15:17.381Z,4.70
2019-01-28T08:17:46.395Z,4.70
2019-01-28T08:20:16.906Z,4.70
2019-01-28T08:22:46.182Z,4.70
2019-01-28T08:25:16.823Z,4.80
2019-01-28T08:27:45.441Z,4.80
2019-01-28T08:30:17.150Z,4.80
2019-01-28T08:32:45.587Z,4.80
2019-01-28T08:35:14.333Z,4.80
2019-01-28T08:37:43.105Z,4.90
2019-01-28T08:40:14.955Z,4.90
2019-01-28T08:42:43.402Z,4.90
2019-01-28T08:45:13.153Z,4.90
2019-01-28T08:47:41.921Z,5.00
2019-01-28T08:50:19.199Z,5.10
2019-01-28T08:52:47.642Z,5.10
2019-01-28T08:55:21.343Z,5.10
2019-01-28T08:57:50.405Z,5.20
2019-01-28T09:00:30.867Z,5.20
2019-01-28T09:02:59.863Z,5.20
2019-01-28T09:05:28.734Z,5.30
2019-01-28T09:07:57.348Z,5.30
2019-01-28T09:10:28.157Z,5.30
2019-01-28T09:12:56.853Z,5.40
2019-01-28T09:15:26.885Z,5.50
2019-01-28T09:17:55.752Z,5.50
2019-01-28T09:20:26.711Z,5.50
2019-01-28T09:22:55.189Z,5.60
2019-01-28T09:25:24.263Z,5.60
2019-01-28T09:27:53.046Z,5.70
2019-01-28T09:30:26.653Z,5.60
2019-01-28T09:32:55.456Z,5.60
2019-01-28T09:35:24.087Z,5.60
2019-01-28T09:37:52.762Z,5.60
2019-01-28T09:40:30.065Z,5.70
2019-01-28T09:42:58.820Z,5.70
2019-01-28T09:45:29.954Z,5.70
2019-01-28T09:47:58.558Z,5.70
2019-01-28T09:50:27.225Z,5.60
2019-01-28T09:52:57.430Z,5.60
2019-01-28T09:55:26.301Z,5.60
2019-01-28T09:57:54.840Z,5.60
2019-01-28T10:00:31.956Z,5.60
2019-01-28T10:03:00.967Z,5.60
2019-01-28T10:05:29.748Z,5.60
2019-01-28T10:07:58.534Z,5.60
2019-01-28T10:10:27.423Z,5.60
2019-01-28T10:12:56.102Z,5.60
2019-01-28T10:15:28.692Z,5.60
2019-01-28T10:17:57.073Z,5.60
2019-01-28T10:20:34.465Z,5.60
2019-01-28T10:23:02.961Z,5.70
2019-01-28T10:25:31.553Z,5.70
2019-01-28T10:28:00.520Z,5.70
2019-01-28T10:30:34.881Z,5.70
2019-01-28T10:33:04.356Z,5.70
2019-01-28T10:35:34.575Z,5.70
2019-01-28T10:38:03.212Z,5.70
2019-01-28T10:40:34.586Z,5.80
2019-01-28T10:43:03.122Z,5.80
2019-01-28T10:45:31.794Z,5.80
2019-01-28T10:48:00.897Z,5.80
2019-01-28T10:50:30.161Z,5.80
2019-01-28T10:52:58.989Z,5.90
2019-01-28T10:55:28.479Z,5.90
2019-01-28T10:57:57.649Z,6.00
2019-01-28T11:00:31.886Z,6.00
2019-01-28T11:03:00.837Z,6.00
2019-01-28T11:05:29.949Z,6.00
2019-01-28T11:07:58.351Z,6.10
2019-01-28T11:10:28.714Z,6.10
2019-01-28T11:12:57.361Z,6.20
2019-01-28T11:15:30.570Z,6.20
2019-01-28T11:18:01.783Z,6.20
2019-01-28T11:20:30.628Z,6.20
2019-01-28T11:22:59.182Z,6.30
2019-01-28T11:25:32.479Z,6.30
2019-01-28T11:28:01.440Z,6.40
2019-01-28T11:30:37.408Z,6.40
2019-01-28T11:33:06.498Z,6.30
2019-01-28T11:35:36.035Z,6.30
2019-01-28T11:38:05.814Z,6.30
2019-01-28T11:40:34.987Z,6.30
2019-01-28T11:43:03.904Z,6.40
2019-01-28T11:45:38.257Z,6.40
2019-01-28T11:48:07.225Z,6.40
2019-01-28T11:50:36.082Z,6.30
2019-01-28T11:53:05.687Z,6.30
2019-01-28T11:55:34.220Z,6.30
2019-01-28T11:58:02.943Z,6.20
2019-01-28T12:00:41.770Z,6.20
2019-01-28T12:03:10.173Z,6.20
2019-01-28T12:05:38.947Z,6.20
2019-01-28T12:08:07.846Z,6.10
2019-01-28T12:10:36.600Z,6.10
2019-01-28T12:13:05.942Z,6.10
2019-01-28T12:15:34.521Z,6.10
2019-01-28T12:18:03.173Z,6.00
2019-01-28T12:20:31.871Z,6.00
2019-01-28T12:23:00.282Z,6.00
2019-01-28T12:25:28.790Z,6.00
2019-01-28T12:27:57.258Z,5.90
2019-01-28T12:30:30.683Z,5.90
2019-01-28T12:32:59.498Z,5.80
2019-01-28T12:35:28.397Z,5.80
2019-01-28T12:37:56.877Z,5.80
2019-01-28T12:40:25.878Z,5.80
2019-01-28T12:42:54.463Z,5.80
2019-01-28T12:45:25.467Z,5.80
2019-01-28T12:47:53.973Z,5.90
2019-01-28T12:50:23.979Z,5.80
2019-01-28T12:52:52.646Z,5.80
2019-01-28T12:55:23.502Z,5.80
2019-01-28T12:57:52.166Z,5.90
2019-01-28T13:00:31.007Z,5.80
2019-01-28T13:02:59.489Z,5.80
2019-01-28T13:05:28.336Z,5.70
2019-01-28T13:07:56.839Z,5.70
2019-01-28T13:10:27.391Z,5.80
2019-01-28T13:12:55.881Z,5.80
2019-01-28T13:15:27.624Z,5.80
2019-01-28T13:17:56.414Z,5.70
2019-01-28T13:20:25.435Z,5.70
2019-01-28T13:22:54.093Z,5.60
2019-01-28T13:25:27.893Z,5.60
2019-01-28T13:27:56.974Z,5.50
2019-01-28T13:30:27.977Z,5.50
2019-01-28T13:32:57.604Z,5.40
2019-01-28T13:35:26.155Z,5.30
2019-01-28T13:37:54.794Z,5.30
2019-01-28T13:40:23.335Z,5.30
2019-01-28T13:42:51.773Z,5.30
2019-01-28T13:45:21.759Z,5.40
2019-01-28T13:47:50.829Z,5.30
2019-01-28T13:50:22.342Z,5.30
2019-01-28T13:52:51.320Z,5.30
2019-01-28T13:55:21.402Z,5.20
2019-01-28T13:57:49.919Z,5.20
2019-01-28T14:00:25.387Z,5.20
2019-01-28T14:02:54.295Z,5.20
2019-01-28T14:05:23.353Z,5.20
2019-01-28T14:07:51.918Z,5.20
2019-01-28T14:10:24.439Z,5.20
2019-01-28T14:12:53.692Z,5.10
2019-01-28T14:15:28.018Z,5.10
2019-01-28T14:17:57.067Z,5.10
2019-01-28T14:20:27.971Z,5.10
2019-01-28T14:22:56.568Z,5.00
2019-01-28T14:25:25.312Z,5.00
2019-01-28T14:27:54.014Z,5.00
2019-01-28T14:30:26.059Z,5.10
2019-01-28T14:32:54.607Z,5.00
2019-01-28T14:35:23.153Z,5.00
2019-01-28T14:37:51.596Z,5.10
2019-01-28T14:40:22.567Z,5.10
2019-01-28T14:42:51.070Z,5.10
2019-01-28T14:45:19.548Z,5.10
2019-01-28T14:47:48.430Z,5.00
2019-01-28T14:50:25.933Z,5.00
2019-01-28T14:52:54.450Z,4.90
2019-01-28T14:55:23.380Z,4.90
2019-01-28T14:57:52.566Z,4.90
2019-01-28T15:00:24.531Z,4.90
2019-01-28T15:02:53.170Z,4.90
2019-01-28T15:05:21.649Z,4.90
2019-01-28T15:07:50.261Z,4.90
2019-01-28T15:10:20.693Z,5.00
2019-01-28T15:12:49.372Z,5.00
2019-01-28T15:15:29.480Z,5.00
2019-01-28T15:17:58.757Z,5.10
2019-01-28T15:20:27.296Z,5.10
2019-01-28T15:22:55.741Z,5.10
2019-01-28T15:25:24.229Z,5.10
2019-01-28T15:27:53.062Z,5.10
2019-01-28T15:30:27.494Z,5.10
2019-01-28T15:32:56.244Z,5.20
2019-01-28T15:35:25.279Z,5.20
2019-01-28T15:37:53.707Z,5.20
2019-01-28T15:40:27.915Z,5.20
2019-01-28T15:42:56.623Z,5.20
2019-01-28T15:45:30.674Z,5.20
2019-01-28T15:47:59.440Z,5.10
2019-01-28T15:50:27.961Z,5.10
2019-01-28T15:52:56.430Z,5.00
2019-01-28T15:55:30.596Z,5.00
2019-01-28T15:57:59.404Z,5.00
2019-01-28T16:00:35.828Z,4.90
2019-01-28T16:03:05.850Z,4.90
2019-01-28T16:05:34.258Z,4.80
2019-01-28T16:08:03.071Z,4.80
2019-01-28T16:10:31.748Z,4.80
2019-01-28T16:13:00.541Z,4.70
2019-01-28T16:15:34.850Z,4.60
2019-01-28T16:18:08.667Z,4.60
2019-01-28T16:20:34.166Z,4.60
2019-01-28T16:23:02.755Z,4.60
2019-01-28T16:25:31.167Z,4.60
2019-01-28T16:27:59.843Z,4.60
2019-01-28T16:30:32.598Z,4.50
2019-01-28T16:33:01.007Z,4.50
2019-01-28T16:35:29.530Z,4.50
2019-01-28T16:37:58.331Z,4.60
2019-01-28T16:40:28.727Z,4.60
2019-01-28T16:42:57.911Z,4.50
2019-01-28T16:45:26.762Z,4.50
2019-01-28T16:47:55.199Z,4.50
2019-01-28T16:50:32.267Z,4.40
2019-01-28T16:53:01.095Z,4.40
2019-01-28T16:55:29.566Z,4.40
2019-01-28T16:57:59.275Z,4.40
2019-01-28T17:00:32.655Z,4.50
2019-01-28T17:03:01.485Z,4.50
2019-01-28T17:05:30.838Z,4.60
2019-01-28T17:07:59.387Z,4.60
2019-01-28T17:10:28.345Z,4.60
2019-01-28T17:12:57.140Z,4.60
2019-01-28T17:15:25.819Z,4.60
2019-01-28T17:17:56.157Z,4.60
2019-01-28T17:20:34.883Z,4.60
2019-01-28T17:22:58.027Z,4.70
2019-01-28T17:25:32.392Z,4.70
2019-01-28T17:28:01.121Z,4.70
2019-01-28T17:30:38.370Z,4.70
2019-01-28T17:33:07.645Z,4.70
2019-01-28T17:35:36.390Z,4.60
2019-01-28T17:38:06.593Z,4.60
2019-01-28T17:40:35.466Z,4.60
2019-01-28T17:43:04.517Z,4.60
2019-01-28T17:45:33.029Z,4.60
2019-01-28T17:48:01.871Z,4.60
2019-01-28T17:50:31.245Z,4.60
2019-01-28T17:52:59.663Z,4.50
2019-01-28T17:55:28.639Z,4.60
2019-01-28T17:57:57.339Z,4.60
2019-01-28T18:00:29.657Z,4.60
2019-01-28T18:02:58.926Z,4.60
2019-01-28T18:05:27.626Z,4.50
2019-01-28T18:07:56.487Z,4.50
2019-01-28T18:10:25.459Z,4.50
2019-01-28T18:12:54.073Z,4.50
2019-01-28T18:15:27.172Z,4.50
2019-01-28T18:17:56.038Z,4.50
2019-01-28T18:20:24.824Z,4.50
2019-01-28T18:22:53.486Z,4.50
2019-01-28T18:25:25.096Z,4.60
2019-01-28T18:27:53.960Z,4.50
2019-01-28T18:30:29.195Z,4.50
2019-01-28T18:32:57.702Z,4.40
2019-01-28T18:35:26.360Z,4.40
2019-01-28T18:37:54.810Z,4.40
2019-01-28T18:40:23.277Z,4.40
2019-01-28T18:42:52.009Z,4.50
2019-01-28T18:45:21.402Z,4.50
2019-01-28T18:47:49.837Z,4.50
2019-01-28T18:50:20.928Z,4.50
2019-01-28T18:52:50.406Z,4.40
2019-01-28T18:55:22.807Z,4.40
2019-01-28T18:57:51.343Z,4.40
2019-01-28T19:00:29.650Z,4.30
2019-01-28T19:02:58.108Z,4.30
2019-01-28T19:05:43.351Z,4.30
2019-01-28T19:08:16.846Z,4.30
2019-01-28T19:10:47.381Z,4.30
2019-01-28T19:13:17.990Z,4.30
2019-01-28T19:15:48.048Z,4.30
2019-01-28T19:18:18.165Z,4.30
2019-01-28T19:20:51.329Z,4.30
2019-01-28T19:23:20.031Z,4.30
2019-01-28T19:25:48.885Z,4.30
2019-01-28T19:28:17.574Z,4.30
2019-01-28T19:30:46.384Z,4.20
2019-01-28T19:33:15.056Z,4.20
2019-01-28T19:35:43.497Z,4.20
2019-01-28T19:38:11.911Z,4.10
2019-01-28T19:40:40.711Z,4.10
2019-01-28T19:43:09.506Z,4.10
2019-01-28T19:45:38.131Z,4.10
2019-01-28T19:48:07.071Z,4.20
2019-01-28T19:50:35.506Z,4.20
2019-01-28T19:53:04.460Z,4.20
2019-01-28T19:55:32.901Z,4.10
2019-01-28T19:58:01.615Z,4.10
2019-01-28T20:00:30.416Z,4.10
2019-01-28T20:02:58.982Z,4.10
2019-01-28T20:05:27.678Z,4.10
2019-01-28T20:07:56.461Z,4.10
2019-01-28T20:10:25.251Z,4.10
2019-01-28T20:12:54.389Z,4.10
2019-01-28T20:15:23.769Z,4.10
2019-01-28T20:17:52.522Z,4.10
2019-01-28T20:20:21.217Z,4.20
2019-01-28T20:22:49.646Z,4.10
2019-01-28T20:25:19.113Z,4.10
2019-01-28T20:27:47.869Z,4.10
2019-01-28T20:30:22.000Z,4.20
2019-01-28T20:32:53.326Z,4.20
2019-01-28T20:35:22.132Z,4.20
2019-01-28T20:37:50.700Z,4.10
2019-01-28T20:40:19.604Z,4.00
2019-01-28T20:42:48.428Z,4.10
2019-01-28T20:45:22.697Z,4.10
2019-01-28T20:47:51.508Z,4.10
2019-01-28T20:50:25.400Z,4.20
2019-01-28T20:52:54.212Z,4.20
2019-01-28T20:55:22.762Z,4.20
2019-01-28T20:57:51.275Z,4.20
2019-01-28T21:00:23.115Z,4.20
2019-01-28T21:02:53.538Z,4.20
2019-01-28T21:05:23.103Z,4.30
2019-01-28T21:07:52.179Z,4.40
2019-01-28T21:10:22.487Z,4.40
2019-01-28T21:12:52.801Z,4.40
2019-01-28T21:15:22.466Z,4.40
2019-01-28T21:17:51.466Z,4.40
2019-01-28T21:20:21.297Z,4.40
2019-01-28T21:22:50.708Z,4.40
2019-01-28T21:25:21.476Z,4.30
2019-01-28T21:27:49.972Z,4.30
2019-01-28T21:30:33.577Z,4.30
2019-01-28T21:33:02.533Z,4.20
2019-01-28T21:35:38.900Z,4.20
2019-01-28T21:38:08.987Z,4.10
2019-01-28T21:40:37.814Z,4.10
2019-01-28T21:43:06.600Z,4.10
2019-01-28T21:45:35.284Z,4.10
2019-01-28T21:48:04.127Z,4.00
2019-01-28T21:50:32.652Z,4.00
2019-01-28T21:53:01.087Z,4.00
2019-01-28T21:55:29.807Z,4.00
2019-01-28T21:57:58.268Z,4.00
2019-01-28T22:00:27.292Z,4.00
2019-01-28T22:02:56.062Z,4.00
2019-01-28T22:05:24.572Z,4.10
2019-01-28T22:07:53.346Z,4.10
2019-01-28T22:10:21.928Z,4.00
2019-01-28T22:12:50.710Z,4.00
2019-01-28T22:15:19.757Z,4.00
2019-01-28T22:17:48.739Z,4.00
2019-01-28T22:20:17.291Z,4.00
2019-01-28T22:22:45.737Z,4.00
2019-01-28T22:25:17.517Z,4.00
2019-01-28T22:27:45.999Z,4.00
2019-01-28T22:30:20.551Z,4.00
2019-01-28T22:32:49.290Z,4.00
2019-01-28T22:35:18.118Z,3.90
2019-01-28T22:37:47.006Z,3.80
2019-01-28T22:40:17.680Z,3.80
2019-01-28T22:42:46.128Z,3.80
2019-01-28T22:45:20.118Z,3.80
2019-01-28T22:47:56.258Z,3.80
2019-01-28T22:50:24.691Z,3.80
2019-01-28T22:53:11.495Z,3.80
2019-01-28T22:55:39.893Z,3.80
2019-01-28T22:58:08.421Z,3.80
2019-01-28T23:00:49.911Z,3.80
2019-01-28T23:03:20.438Z,3.80
2019-01-28T23:05:49.326Z,3.80
2019-01-28T23:08:18.104Z,3.80
2019-01-28T23:10:46.914Z,3.70
2019-01-28T23:13:15.699Z,3.70
2019-01-28T23:15:44.281Z,3.60
2019-01-28T23:18:13.155Z,3.60
2019-01-28T23:20:41.855Z,3.60
2019-01-28T23:23:10.257Z,3.60
2019-01-28T23:25:38.690Z,3.60
2019-01-28T23:28:07.153Z,3.50
2019-01-28T23:30:36.053Z,3.40
2019-01-28T23:33:05.103Z,3.40
2019-01-28T23:35:34.060Z,3.40
2019-01-28T23:38:02.729Z,3.40
2019-01-28T23:40:31.843Z,3.50
2019-01-28T23:43:00.323Z,3.50
2019-01-28T23:45:29.103Z,3.50
2019-01-28T23:47:57.514Z,3.50
2019-01-28T23:50:26.219Z,3.50
2019-01-28T23:52:54.689Z,3.50
2019-01-28T23:55:23.534Z,3.50
2019-01-28T23:57:56.871Z,3.40
